Main page
METAR-TAF:

METAR-TAF

Airports :

Fujairah International Airport

Fujairah, United Arab Emirates

latitude: 25-06N, longitude: 056-20E, elevation: 28 m

Current weather observation

The report was made 35 minutes ago, at 04:00 UTC
Wind 4 kt from the West/Northwest
Temperature 21°C
Humidity 35%
Pressure 1021 hPa
Visibility: 8000 m

METAR: OMFJ 090400Z 29004KT 8000 NSC 21/05 Q1021 A3015

Time: 08:35 (04:35 UTC)

Forecast

The report was made 5 hours and 35 minutes ago, at 23:00 UTC
Forecast valid from 09 at 00 UTC to 10 at 06 UTC
Wind 5 kt from the West
Visibility: 8000 m
Becoming
from 09 at 05 UTC to 09 at 07 UTC
Wind 8 kt from the East
Becoming
from 09 at 14 UTC to 09 at 16 UTC
Wind 3 kt from variable directions
Becoming
from 09 at 20 UTC to 09 at 22 UTC
Wind 6 kt from the West/Northwest

TAF: OMFJ 082300Z 0900/1006 28005KT 8000 NSC BECMG 0905/0907 10008KT BECMG 0914/0916 VRB03KT BECMG 0920/0922 29006KT

Weather observations and forecasts of more than 4000 airports (METAR and TAF reports).

The available stations are represented by yellow and red dots on the map.

Hover mouse over dot to see the name of the station.

Then click to see weather observations and forecasts.

To change the map : click on the green buttons with a black cross to zoom in, on the green button with a dash to zoom out, or on the green arrows for adjacent maps.


METAR-TAF: